Relevés horaires Schaffen (Belgique)


Relevés horaires à Schaffen - Jeudi 15 Avr. 2021
Heure UTC1 Température [°C] Vent [km/h] Hum. [%] Pres.4 [hPa] Visi. [Km] Nébu. [octa] Préc.5 [mm] Cond.
2m. Res. Ros. Dir.2 Vit. Moy. Raf.3
23:00 3.1 1.7 -2.2 N 5.6 -- 7.4 68 1029.7(0.1/3h) 20 -- -- --
22:00 3.5 2.1 -2.5 N 5.6 -- 7.4 65 1029.7(0.1/3h) 20 -- -- --
21:00 4.3 3.1 -2.9 N 5.6 -- 7.4 59 1029.7(0.5/3h) 20 -- -- --
20:00 5.3 5.3 -3.2 N 3.7 -- 5.6 54 1029.7(0.4/3h) 20 -- -- --
19:00 6.3 6.3 -2.8 N 3.7 -- 7.4 52 1029.5(0.0/3h) 20 -- -- --
18:00 6.1 5.1 -1.6 NNE 5.6 -- 13.0 58 1029.2(-0.6/3h) 20 -- trace/12h
NA
17:00 7.0 7.0 -2.1 N 3.7 -- 13.0 52 1029.2(-0.9/3h) 20 -- -- --
16:00 7.7 6.4 -1.5 N 7.4 -- 13.0 52 1029.5(-1.0/3h) 20 -- -- --
15:00 8.3 8.3 -0.6 E 3.7 -- 11.1 53 1029.7(-1.1/3h) 20 -- -- NA
14:00 7.3 6.5 -1.0 NNE 5.6 -- 11.1 56 1030.2(-1.0/3h) 20 -- -- NA
13:00 8.0 8.0 -1.3 E 3.7 -- 9.3 52 1030.5(-0.9/3h) 20 -- -- --
12:00 7.2 7.2 -- ENE 3.7 -- 7.4 -- 1030.9(-0.5/3h) 20 -- -- --
11:00 6.2 6.2 1.2 NNO 1.9 -- 7.4 70 1031.2(0.0/3h) 20 -- -- --
10:00 5.4 5.4 0.9 NNO 1.9 -- 5.6 73 1031.5(0.1/3h) 20 -- -- --
09:00 5.6 5.6 1.7 NNO 1.9 -- 3.7 76 1031.5(0.2/3h) 20 -- -- --
08:00 3.9 3.9 1.5 NNO 1.9 -- 3.7 84 1031.5(0.5/3h) 20 -- -- --
07:00 2.3 2.3 0.9 NNO 1.9 -- 3.7 90 1031.4(0.6/3h) 17 -- -- --
06:00 1.2 1.2 0.1 NNO 1.9 -- 7.4 92 1031.2(0.6/3h) 15 -- -- --
05:00 -0.2 -0.2 -0.8 NNO 3.7 -- 5.6 96 1031(0.3/3h) 13 -- -- --
04:00 -0.1 -0.1 -1.0 NNO 3.7 -- 7.4 94 1030.7(0.0/3h) 16 -- -- --
03:00 0.2 0.2 -0.7 N 3.7 -- 7.4 94 1030.7(-0.4/3h) 20 -- -- --
02:00 0.2 -1.6 -1.0 N 5.6 -- 7.4 92 1030.7(-0.4/3h) 20 -- -- --
01:00 0.8 -0.9 -0.9 NNO 5.6 -- 5.6 88 1030.7(-0.3/3h) 20 -- -- --
00:00 1.5 -0.1 -1.1 N 5.6 -- 13.0 83 1031(0.0/3h) 20 -- -- --

1 Coordinated Universal Time. Actuellement il est 21:00 locale et 19:00 UTC.

2 Le vent souffle depuis la direction indiquée vers la direction oposée.

3 Les rafales max. sont disponible 40 min après l'heure du relevé.

4 Pour les stations d'altitude (plus de 600m) le géopotentiel du niveau le plus proche de la pression obligatoire est indiqué.

5 Les stations disposant d'un diffuseur peuvent indiquer "trace". Cela signifie que des précipitations ont touchés le sol mais que la quantité est inférieure à 0.1 mm.

Récapitulatif de la journée
Température [°C] Vent [km/h] Ensoleillement4 [h] Precipitations totale5 [mm] Pression [Hpa]
Min1 Max.2 Moy.3 Max. Min Max.
-0.5 9.2 0 13.0 0 h 0 min 0 1029.2 1031.5

1 Température minimale relevée entre 18:00 UTC la veille et 18:00 UTC le jour donné.

2 Température maximale relevée entre 06:00 UTC le jour donné et 06:00 UTC le lendemain.

3 Vent moyen de la journée basé sur les relevés horaires.

4 Ensoleillement en heures relevé entre 06:00 UTC la veille et 06:00 UTC le jour donné.

5 Précipitations totales tombées entre 06:00 UTC la jour donné et 06:00 UTC le lendemain.

Graphiques horaires